Time;durP1;ratioP1;P1;durP2;ratioP2;P2;SDS_P1;SDS_P2;PMS_P1;PMS_P2;Temp;Humidity;BMP_temperature;BMP_pressure;BME280_temperature;BME280_humidity;BME280_pressure;Samples;Min_cycle;Max_cycle;Signal;HPM_P1;HPM_P2
2023/10/30 00:01:29;;;;;;;6.53;1.25;;;11.20;99.90;;;;;;5092333;28;20043;-78
2023/10/30 00:03:55;;;;;;;6.05;1.40;;;11.20;99.90;;;;;;5092384;28;20059;-78
2023/10/30 00:06:20;;;;;;;4.93;0.98;;;11.20;99.90;;;;;;5090076;28;20416;-78
2023/10/30 00:08:46;;;;;;;5.03;1.40;;;11.20;99.90;;;;;;5103870;28;20040;-78
2023/10/30 00:11:11;;;;;;;2.30;0.80;;;11.20;99.90;;;;;;5075384;28;20434;-78
2023/10/30 00:13:37;;;;;;;5.65;1.20;;;11.10;99.90;;;;;;5081486;28;20032;-78
2023/10/30 00:16:03;;;;;;;8.15;1.63;;;11.00;99.90;;;;;;5090615;28;20075;-78
2023/10/30 00:18:28;;;;;;;5.40;1.02;;;11.00;99.90;;;;;;5074314;28;20047;-78
2023/10/30 00:20:54;;;;;;;5.80;1.38;;;11.00;99.90;;;;;;5071863;28;20044;-78
2023/10/30 00:23:20;;;;;;;5.63;0.98;;;11.00;99.90;;;;;;5072240;28;20079;-78
2023/10/30 00:25:45;;;;;;;7.95;1.25;;;11.00;99.90;;;;;;5073639;28;20571;-79
2023/10/30 00:28:11;;;;;;;4.53;1.08;;;11.00;99.90;;;;;;5075191;28;20537;-79
2023/10/30 00:30:36;;;;;;;3.72;0.80;;;11.00;99.90;;;;;;5074360;28;20109;-78
2023/10/30 00:33:02;;;;;;;5.13;1.13;;;10.90;99.90;;;;;;5075270;28;20071;-78
2023/10/30 00:35:28;;;;;;;4.72;1.30;;;11.00;99.90;;;;;;5075252;28;20123;-78
2023/10/30 00:37:53;;;;;;;5.85;1.00;;;10.90;99.90;;;;;;5091281;28;20036;-78
2023/10/30 00:40:19;;;;;;;6.07;1.00;;;10.90;99.90;;;;;;5074072;28;20097;-78
2023/10/30 00:42:45;;;;;;;2.88;0.82;;;10.90;99.90;;;;;;5074978;28;20055;-78
2023/10/30 00:45:10;;;;;;;5.47;1.08;;;10.90;99.90;;;;;;5093075;28;20040;-78
2023/10/30 00:47:38;;;;;;;4.72;1.20;;;10.90;99.90;;;;;;5074613;28;20036;-78
2023/10/30 00:50:07;;;;;;;5.90;1.13;;;10.90;99.90;;;;;;5074295;28;20408;-78
2023/10/30 00:52:33;;;;;;;4.35;1.25;;;10.90;99.90;;;;;;5077062;28;20056;-78
2023/10/30 00:54:58;;;;;;;4.13;1.00;;;10.80;99.90;;;;;;5079018;28;20082;-78
2023/10/30 00:57:24;;;;;;;4.78;1.63;;;10.80;99.90;;;;;;5074770;28;20469;-79
2023/10/30 00:59:50;;;;;;;5.85;1.38;;;10.80;99.90;;;;;;5058285;28;20040;-79
2023/10/30 01:02:16;;;;;;;6.30;0.90;;;10.70;99.90;;;;;;5056835;28;20037;-79
2023/10/30 01:04:41;;;;;;;8.13;1.40;;;10.70;99.90;;;;;;5058699;28;20123;-78
2023/10/30 01:07:07;;;;;;;2.55;1.08;;;10.70;99.90;;;;;;5058759;28;20029;-79
2023/10/30 01:09:33;;;;;;;8.93;1.52;;;10.70;99.90;;;;;;5075423;28;20113;-79
2023/10/30 01:11:59;;;;;;;6.45;1.40;;;10.70;99.90;;;;;;5057248;28;20046;-79
2023/10/30 01:14:25;;;;;;;7.90;2.47;;;10.60;99.90;;;;;;5057649;28;20038;-79
2023/10/30 01:16:51;;;;;;;5.03;1.20;;;10.60;99.90;;;;;;5068273;28;20040;-78
2023/10/30 01:19:16;;;;;;;4.43;1.13;;;10.60;99.90;;;;;;5048670;28;20040;-79
2023/10/30 01:21:43;;;;;;;6.30;1.50;;;10.60;99.90;;;;;;5074300;28;20040;-79
2023/10/30 01:24:08;;;;;;;5.45;1.20;;;10.60;99.90;;;;;;5074265;28;20068;-78
2023/10/30 01:26:34;;;;;;;4.20;1.17;;;10.60;99.90;;;;;;5068301;28;20130;-78
2023/10/30 01:29:00;;;;;;;4.97;1.30;;;10.60;99.90;;;;;;5064833;28;20404;-78
2023/10/30 01:31:27;;;;;;;3.47;1.10;;;10.50;99.90;;;;;;5052360;28;20036;-78
2023/10/30 01:33:56;;;;;;;6.32;1.55;;;10.60;99.90;;;;;;5060374;28;20037;-78
2023/10/30 01:36:22;;;;;;;3.45;1.45;;;10.60;99.90;;;;;;5075176;28;20393;-78
2023/10/30 01:38:48;;;;;;;6.90;1.55;;;10.50;99.90;;;;;;5074828;28;20040;-79
2023/10/30 01:41:14;;;;;;;5.32;1.20;;;10.60;99.90;;;;;;5074028;28;20044;-78
2023/10/30 01:43:39;;;;;;;5.72;1.23;;;10.60;99.90;;;;;;5073889;28;20124;-78
2023/10/30 01:46:05;;;;;;;3.67;1.10;;;10.50;99.90;;;;;;5058135;28;20036;-78
2023/10/30 01:48:33;;;;;;;6.07;1.33;;;10.60;99.90;;;;;;5073955;28;20043;-78
2023/10/30 01:51:00;;;;;;;5.78;1.20;;;10.50;99.90;;;;;;5074578;28;20040;-78
2023/10/30 01:53:29;;;;;;;6.82;1.10;;;10.60;99.90;;;;;;5073989;28;20405;-78
2023/10/30 01:55:56;;;;;;;7.13;1.50;;;10.60;99.90;;;;;;5056864;28;20037;-78
2023/10/30 01:58:25;;;;;;;5.85;1.05;;;10.60;99.90;;;;;;5092723;28;20083;-78
2023/10/30 02:00:53;;;;;;;4.30;1.20;;;10.60;99.90;;;;;;5094160;28;20408;-78
2023/10/30 02:03:19;;;;;;;6.53;1.48;;;10.60;99.90;;;;;;5075707;28;20134;-78
2023/10/30 02:05:45;;;;;;;3.53;1.20;;;10.50;99.90;;;;;;5068757;28;20127;-79
2023/10/30 02:08:11;;;;;;;5.47;1.58;;;10.60;99.90;;;;;;5077727;28;20028;-78
2023/10/30 02:10:37;;;;;;;6.25;1.30;;;10.60;99.90;;;;;;5074813;28;20036;-78
2023/10/30 02:13:10;;;;;;;7.75;1.90;;;10.60;99.90;;;;;;5073423;28;20489;-78
2023/10/30 02:15:35;;;;;;;5.60;1.63;;;10.60;99.90;;;;;;5076602;28;20090;-78
2023/10/30 02:18:01;;;;;;;6.22;1.48;;;10.50;99.90;;;;;;5111432;28;20086;-78
2023/10/30 02:20:27;;;;;;;5.75;1.33;;;10.60;99.90;;;;;;5091030;28;20123;-78
2023/10/30 02:22:53;;;;;;;5.70;1.35;;;10.60;99.90;;;;;;5076397;28;20510;-78
2023/10/30 02:25:22;;;;;;;7.38;1.50;;;10.60;99.90;;;;;;5076851;28;20071;-78
2023/10/30 02:27:52;;;;;;;6.57;1.20;;;10.60;99.90;;;;;;5094521;28;20153;-78
2023/10/30 02:30:18;;;;;;;4.70;1.27;;;10.60;99.90;;;;;;5095558;28;20119;-78
2023/10/30 02:32:45;;;;;;;4.13;1.00;;;10.60;99.90;;;;;;5059835;28;20111;-78
2023/10/30 02:35:16;;;;;;;7.80;2.10;;;10.50;99.90;;;;;;5109204;28;20050;-78
2023/10/30 02:37:42;;;;;;;9.57;1.60;;;10.60;99.90;;;;;;5095080;28;20115;-78
2023/10/30 02:40:08;;;;;;;7.65;2.05;;;10.50;99.90;;;;;;5110963;28;20476;-78
2023/10/30 02:42:34;;;;;;;5.85;1.45;;;10.50;99.90;;;;;;5074354;28;20047;-78
2023/10/30 02:45:00;;;;;;;4.30;1.20;;;10.60;99.90;;;;;;5039695;28;20036;-78
2023/10/30 02:47:25;;;;;;;6.25;1.75;;;10.60;99.90;;;;;;5105272;28;20040;-78
2023/10/30 02:49:51;;;;;;;5.03;1.52;;;10.60;99.90;;;;;;5076803;28;20531;-78
2023/10/30 02:52:18;;;;;;;6.35;1.20;;;10.60;99.90;;;;;;5059507;28;20036;-78
2023/10/30 02:54:44;;;;;;;7.20;1.63;;;10.60;99.90;;;;;;5060153;28;20071;-78
2023/10/30 02:57:10;;;;;;;7.13;2.05;;;10.60;99.90;;;;;;5082017;28;20071;-78
2023/10/30 02:59:36;;;;;;;6.55;1.50;;;10.70;99.90;;;;;;5092451;28;20412;-78
2023/10/30 03:02:02;;;;;;;11.38;1.52;;;10.60;99.90;;;;;;5082157;28;20120;-78
2023/10/30 03:04:28;;;;;;;8.38;1.50;;;10.60;99.90;;;;;;5075897;28;20035;-78
2023/10/30 03:06:54;;;;;;;6.82;1.40;;;10.60;99.90;;;;;;5076637;28;20055;-78
2023/10/30 03:09:20;;;;;;;10.05;1.60;;;10.60;99.90;;;;;;5093399;28;20040;-78
2023/10/30 03:11:46;;;;;;;6.28;1.27;;;10.50;99.90;;;;;;5075694;28;20114;-78
2023/10/30 03:14:12;;;;;;;8.15;1.60;;;10.60;99.90;;;;;;5075292;28;20067;-78
2023/10/30 03:16:38;;;;;;;9.02;1.50;;;10.50;99.90;;;;;;5074800;28;20487;-78
2023/10/30 03:19:03;;;;;;;6.25;1.73;;;10.50;99.90;;;;;;5092736;28;20126;-78
2023/10/30 03:21:29;;;;;;;6.13;1.30;;;10.50;99.90;;;;;;5075377;28;20043;-78
2023/10/30 03:23:54;;;;;;;8.95;1.90;;;10.50;99.90;;;;;;5094293;28;20100;-78
2023/10/30 03:26:20;;;;;;;9.32;1.50;;;10.50;99.90;;;;;;5093633;28;20039;-78
2023/10/30 03:28:45;;;;;;;6.40;1.20;;;10.50;99.90;;;;;;5085738;28;20499;-78
2023/10/30 03:31:11;;;;;;;6.80;1.20;;;10.50;99.90;;;;;;5068747;28;20048;-78
2023/10/30 03:33:37;;;;;;;5.68;1.05;;;10.50;99.90;;;;;;5106427;28;20044;-78
2023/10/30 03:36:03;;;;;;;4.55;1.20;;;10.40;99.90;;;;;;5075892;28;20115;-78
2023/10/30 03:38:29;;;;;;;7.80;1.50;;;10.50;99.90;;;;;;5058437;28;20047;-78
2023/10/30 03:40:54;;;;;;;11.88;2.15;;;10.50;99.90;;;;;;5043592;28;20044;-78
2023/10/30 03:43:20;;;;;;;7.28;1.75;;;10.50;99.90;;;;;;5072726;28;20041;-78
2023/10/30 03:45:46;;;;;;;7.95;1.77;;;10.50;99.90;;;;;;5055687;28;20040;-78
2023/10/30 03:48:11;;;;;;;9.27;1.55;;;10.40;99.90;;;;;;5057736;28;20036;-78
2023/10/30 03:50:37;;;;;;;6.78;1.52;;;10.40;99.90;;;;;;5081775;28;20400;-78
2023/10/30 03:53:02;;;;;;;10.20;1.85;;;10.50;99.90;;;;;;5078789;28;20036;-78
2023/10/30 03:55:28;;;;;;;7.03;1.40;;;10.40;99.90;;;;;;5058609;28;20454;-78
2023/10/30 03:57:54;;;;;;;7.80;1.40;;;10.40;99.90;;;;;;5058830;28;20059;-78
2023/10/30 04:00:19;;;;;;;10.15;2.38;;;10.50;99.90;;;;;;5074915;28;20044;-78
2023/10/30 04:02:45;;;;;;;7.90;1.50;;;10.50;99.90;;;;;;5078152;28;20507;-78
2023/10/30 04:05:11;;;;;;;8.80;1.48;;;10.50;99.90;;;;;;5092603;28;20044;-78
2023/10/30 04:07:36;;;;;;;7.78;1.65;;;10.50;99.90;;;;;;5076762;28;20040;-78
2023/10/30 04:10:02;;;;;;;6.97;1.70;;;10.50;99.90;;;;;;5055801;28;20442;-78
2023/10/30 04:12:28;;;;;;;6.03;1.40;;;10.50;99.90;;;;;;5083312;28;20086;-78
2023/10/30 04:14:55;;;;;;;5.70;1.42;;;10.50;99.90;;;;;;5092324;28;20411;-78
2023/10/30 04:17:21;;;;;;;8.02;1.50;;;10.40;99.90;;;;;;5109241;28;20047;-78
2023/10/30 04:19:46;;;;;;;7.25;1.73;;;10.40;99.90;;;;;;5074440;28;20035;-78
2023/10/30 04:22:12;;;;;;;9.20;1.90;;;10.40;99.90;;;;;;5074299;28;20381;-77
2023/10/30 04:24:37;;;;;;;7.38;1.50;;;10.50;99.90;;;;;;5075271;28;20040;-78
2023/10/30 04:27:03;;;;;;;7.13;1.40;;;10.40;99.90;;;;;;5074399;28;20040;-78
2023/10/30 04:29:29;;;;;;;11.65;1.55;;;10.50;99.90;;;;;;5074476;28;20039;-78
2023/10/30 04:31:54;;;;;;;7.57;1.45;;;10.50;99.90;;;;;;5085150;28;20484;-78
2023/10/30 04:34:20;;;;;;;7.90;1.40;;;10.50;99.90;;;;;;5075136;28;20071;-78
2023/10/30 04:36:46;;;;;;;7.55;1.83;;;10.50;99.90;;;;;;5075244;28;20498;-78
2023/10/30 04:39:13;;;;;;;4.10;1.05;;;10.50;99.90;;;;;;5075508;28;20506;-78
2023/10/30 04:41:39;;;;;;;6.32;1.80;;;10.50;99.90;;;;;;5079776;28;20431;-78
2023/10/30 04:44:05;;;;;;;9.13;1.77;;;10.50;99.90;;;;;;5071634;28;20086;-78
2023/10/30 04:46:31;;;;;;;8.85;1.80;;;10.50;99.90;;;;;;5071626;28;20071;-78
2023/10/30 04:48:56;;;;;;;10.45;2.03;;;10.50;99.90;;;;;;5071669;28;20123;-78
2023/10/30 04:51:22;;;;;;;12.20;1.70;;;10.40;99.90;;;;;;5079489;28;20116;-78
2023/10/30 04:53:48;;;;;;;7.65;1.45;;;10.50;99.90;;;;;;5074526;28;20393;-78
2023/10/30 04:56:13;;;;;;;9.25;1.77;;;10.50;99.90;;;;;;5093256;28;20043;-78
2023/10/30 04:58:39;;;;;;;11.20;1.83;;;10.40;99.90;;;;;;5074756;28;20070;-78
2023/10/30 05:01:09;;;;;;;8.45;1.75;;;10.40;99.90;;;;;;5056486;28;20050;-78
2023/10/30 05:03:36;;;;;;;7.55;1.40;;;10.40;99.90;;;;;;5057526;28;20054;-78
2023/10/30 05:06:02;;;;;;;7.97;1.40;;;10.40;99.90;;;;;;5074357;28;20055;-78
2023/10/30 05:08:28;;;;;;;12.98;1.92;;;10.40;99.90;;;;;;5074887;28;20169;-78
2023/10/30 05:10:53;;;;;;;7.25;1.42;;;10.30;99.90;;;;;;5073349;28;20123;-78
2023/10/30 05:13:20;;;;;;;6.90;1.67;;;10.30;99.90;;;;;;5074995;28;20036;-78
2023/10/30 05:15:46;;;;;;;9.27;1.50;;;10.40;99.90;;;;;;5108765;28;20443;-78
2023/10/30 05:18:12;;;;;;;9.05;1.73;;;10.30;99.90;;;;;;5090479;28;20036;-78
2023/10/30 05:20:38;;;;;;;9.07;1.73;;;10.40;99.90;;;;;;5074672;28;20530;-78
2023/10/30 05:23:04;;;;;;;8.52;1.30;;;10.40;99.90;;;;;;5069808;28;20131;-78
2023/10/30 05:25:30;;;;;;;7.20;1.85;;;10.30;99.90;;;;;;5054639;28;20044;-78
2023/10/30 05:27:56;;;;;;;8.32;1.70;;;10.40;99.90;;;;;;5071571;28;20068;-78
2023/10/30 05:30:21;;;;;;;9.93;1.58;;;10.30;99.90;;;;;;5071432;28;20090;-78
2023/10/30 05:32:47;;;;;;;7.70;1.70;;;10.40;99.90;;;;;;5073020;28;20036;-78
2023/10/30 05:35:12;;;;;;;9.30;1.58;;;10.30;99.90;;;;;;5074555;28;20407;-78
2023/10/30 05:37:38;;;;;;;8.50;2.15;;;10.30;99.90;;;;;;5059281;28;20051;-78
2023/10/30 05:40:07;;;;;;;10.50;1.50;;;10.30;99.90;;;;;;5061628;28;20043;-78
2023/10/30 05:42:32;;;;;;;8.98;1.73;;;10.30;99.90;;;;;;5109947;28;20040;-78
2023/10/30 05:44:58;;;;;;;6.55;1.45;;;10.30;99.90;;;;;;5111885;28;20460;-78
2023/10/30 05:47:23;;;;;;;9.13;2.13;;;10.30;99.90;;;;;;5076331;28;20168;-78
2023/10/30 05:49:49;;;;;;;7.38;1.73;;;10.30;99.90;;;;;;5078367;28;20032;-78
2023/10/30 05:52:15;;;;;;;7.25;1.85;;;10.30;99.90;;;;;;5076587;28;20032;-78
2023/10/30 05:54:40;;;;;;;13.82;1.95;;;10.30;99.90;;;;;;5094420;28;20067;-78
2023/10/30 05:57:06;;;;;;;9.05;1.55;;;10.20;99.90;;;;;;5067478;28;20056;-78
2023/10/30 05:59:31;;;;;;;7.18;1.30;;;10.20;99.90;;;;;;5074583;28;20040;-78
2023/10/30 06:01:57;;;;;;;7.60;1.67;;;10.20;99.90;;;;;;5074487;28;20041;-78
2023/10/30 06:04:24;;;;;;;9.80;2.00;;;10.20;99.90;;;;;;5108994;28;20499;-78
2023/10/30 06:06:49;;;;;;;9.48;2.10;;;10.20;99.90;;;;;;5092856;28;20032;-78
2023/10/30 06:09:15;;;;;;;5.15;1.42;;;10.20;99.90;;;;;;5077790;28;20032;-78
2023/10/30 06:11:45;;;;;;;9.07;1.35;;;10.20;99.90;;;;;;5077636;28;20404;-78
2023/10/30 06:14:11;;;;;;;7.28;1.67;;;10.20;99.90;;;;;;5065969;28;20044;-78
2023/10/30 06:16:36;;;;;;;11.60;1.88;;;10.20;99.90;;;;;;5087201;28;20485;-78
2023/10/30 06:19:02;;;;;;;10.98;2.20;;;10.20;99.90;;;;;;5077147;28;20093;-78
2023/10/30 06:21:27;;;;;;;8.15;2.10;;;10.20;99.90;;;;;;5077263;28;20032;-78
2023/10/30 06:23:53;;;;;;;10.05;2.30;;;10.20;99.90;;;;;;5110035;28;20040;-78
2023/10/30 06:26:18;;;;;;;7.43;1.65;;;10.20;99.90;;;;;;5076620;28;20044;-78
2023/10/30 06:28:44;;;;;;;8.98;1.80;;;10.20;99.90;;;;;;5061191;28;20047;-78
2023/10/30 06:31:17;;;;;;;10.43;2.80;;;10.20;99.90;;;;;;5077320;28;20032;-78
2023/10/30 06:33:44;;;;;;;11.98;1.95;;;10.20;99.90;;;;;;5076954;28;20035;-78
2023/10/30 06:36:10;;;;;;;7.50;1.60;;;10.20;99.90;;;;;;5092015;28;20105;-78
2023/10/30 06:38:36;;;;;;;9.10;1.35;;;10.20;99.90;;;;;;5059312;28;20504;-78
2023/10/30 06:41:03;;;;;;;6.70;1.52;;;10.20;99.90;;;;;;5059377;28;20041;-78
2023/10/30 06:43:29;;;;;;;12.38;2.20;;;10.20;99.90;;;;;;5060461;28;20511;-78
2023/10/30 06:45:59;;;;;;;9.88;1.85;;;10.20;99.90;;;;;;5070571;28;20488;-78
2023/10/30 06:48:24;;;;;;;10.73;2.08;;;10.20;99.90;;;;;;5060231;28;20047;-78
2023/10/30 06:50:50;;;;;;;7.05;1.48;;;10.20;99.90;;;;;;5059947;28;20024;-78
2023/10/30 06:53:15;;;;;;;7.90;1.50;;;10.30;99.90;;;;;;5076896;28;20032;-78
2023/10/30 06:55:41;;;;;;;9.35;2.08;;;10.30;99.90;;;;;;5082044;28;20408;-78
2023/10/30 06:58:06;;;;;;;6.20;1.40;;;10.30;99.90;;;;;;5091088;28;20059;-78
2023/10/30 07:00:33;;;;;;;9.30;1.80;;;10.30;99.90;;;;;;5076745;28;20108;-78
2023/10/30 07:02:59;;;;;;;7.35;1.75;;;10.40;99.90;;;;;;5076635;28;20036;-78
2023/10/30 07:05:24;;;;;;;7.72;1.83;;;10.40;99.90;;;;;;5076810;28;20500;-78
2023/10/30 07:07:50;;;;;;;6.85;1.35;;;10.50;99.90;;;;;;5060249;28;20032;-78
2023/10/30 07:10:16;;;;;;;11.07;1.88;;;10.60;99.90;;;;;;5072944;28;20040;-78
2023/10/30 07:12:41;;;;;;;11.32;2.20;;;10.70;99.90;;;;;;5041462;28;20035;-78
2023/10/30 07:15:07;;;;;;;13.40;1.73;;;10.80;99.90;;;;;;5055267;28;20028;-78
2023/10/30 07:17:33;;;;;;;9.52;2.17;;;10.80;99.90;;;;;;5100718;28;20439;-78
2023/10/30 07:19:59;;;;;;;11.23;2.13;;;10.90;99.90;;;;;;5074915;28;20042;-78
2023/10/30 07:22:25;;;;;;;9.13;1.77;;;10.80;99.90;;;;;;5082209;28;20042;-78
2023/10/30 07:24:50;;;;;;;7.22;1.77;;;10.90;99.90;;;;;;5072052;28;20119;-78
2023/10/30 07:27:18;;;;;;;11.32;1.95;;;10.90;99.90;;;;;;5068252;28;20122;-78
2023/10/30 07:29:44;;;;;;;9.05;1.50;;;11.00;99.90;;;;;;5046252;28;20040;-78
2023/10/30 07:32:09;;;;;;;8.00;1.38;;;11.00;99.90;;;;;;5092183;28;20055;-78
2023/10/30 07:34:35;;;;;;;7.93;1.45;;;11.10;99.90;;;;;;5056193;28;20044;-78
2023/10/30 07:37:00;;;;;;;11.15;2.08;;;11.20;99.90;;;;;;5094553;28;20047;-78
2023/10/30 07:39:26;;;;;;;8.93;1.80;;;11.20;99.90;;;;;;5087669;28;20043;-78
2023/10/30 07:41:52;;;;;;;8.40;1.55;;;11.10;99.90;;;;;;5068297;28;20135;-78
2023/10/30 07:44:17;;;;;;;8.70;1.25;;;11.20;99.90;;;;;;5056810;28;20400;-78
2023/10/30 07:46:43;;;;;;;8.48;1.70;;;11.20;99.90;;;;;;5074451;28;20131;-78
2023/10/30 07:49:08;;;;;;;10.18;1.83;;;11.20;99.90;;;;;;5074507;28;20044;-78
2023/10/30 07:51:34;;;;;;;9.18;1.80;;;11.20;99.90;;;;;;5069752;28;20099;-78
2023/10/30 07:54:00;;;;;;;10.88;1.52;;;11.30;99.90;;;;;;5062754;28;20643;-80
2023/10/30 07:56:26;;;;;;;9.25;1.90;;;11.30;99.90;;;;;;5091362;28;20044;-81
2023/10/30 07:58:51;;;;;;;6.68;1.42;;;11.40;99.90;;;;;;5052130;28;20483;-80
2023/10/30 08:01:20;;;;;;;6.40;1.38;;;11.40;99.90;;;;;;5074856;28;20074;-79
2023/10/30 08:03:46;;;;;;;10.00;1.60;;;11.40;99.90;;;;;;5073852;28;20071;-78
2023/10/30 08:06:12;;;;;;;9.95;1.67;;;11.40;99.90;;;;;;5085084;28;20051;-80
2023/10/30 08:08:38;;;;;;;7.00;1.40;;;11.40;99.90;;;;;;5088456;28;20036;-78
2023/10/30 08:11:04;;;;;;;4.90;1.30;;;11.40;99.90;;;;;;5074713;28;20051;-79
2023/10/30 08:13:31;;;;;;;7.28;1.67;;;11.50;99.90;;;;;;5074976;28;20032;-78
2023/10/30 08:15:56;;;;;;;11.75;2.55;;;11.50;99.90;;;;;;5087253;28;20485;-79
2023/10/30 08:18:22;;;;;;;7.18;1.40;;;11.50;99.90;;;;;;5087874;28;20119;-77
2023/10/30 08:20:47;;;;;;;12.63;1.70;;;11.50;99.90;;;;;;5071739;28;20032;-80
2023/10/30 08:23:13;;;;;;;11.63;1.75;;;11.60;99.90;;;;;;5072223;28;20043;-80
2023/10/30 08:25:39;;;;;;;8.85;1.50;;;11.70;99.90;;;;;;5050834;28;20068;-76
2023/10/30 08:28:04;;;;;;;10.27;1.83;;;11.60;99.90;;;;;;5068596;28;20028;-77
2023/10/30 08:30:30;;;;;;;13.00;1.92;;;11.70;99.90;;;;;;5072207;28;20439;-77
2023/10/30 08:32:56;;;;;;;10.00;1.40;;;11.80;99.90;;;;;;5094483;28;20043;-77
2023/10/30 08:35:22;;;;;;;9.15;1.52;;;11.80;99.90;;;;;;5072467;28;20672;-77
2023/10/30 08:37:48;;;;;;;9.20;2.45;;;11.90;99.90;;;;;;5055730;28;20046;-77
2023/10/30 08:40:14;;;;;;;12.70;2.10;;;11.90;99.90;;;;;;5108021;28;20046;-77
2023/10/30 08:42:39;;;;;;;9.52;1.92;;;11.90;99.90;;;;;;5089266;28;20047;-77
2023/10/30 08:45:07;;;;;;;9.65;1.92;;;12.00;99.90;;;;;;5090260;28;20074;-77
2023/10/30 08:47:32;;;;;;;9.43;1.67;;;12.00;99.90;;;;;;5089319;28;20032;-77
2023/10/30 08:49:58;;;;;;;8.90;1.50;;;12.10;99.90;;;;;;5071372;28;20482;-77
2023/10/30 08:52:24;;;;;;;9.23;1.50;;;12.10;99.90;;;;;;5069830;28;20086;-77
2023/10/30 08:54:49;;;;;;;10.52;1.65;;;12.10;99.90;;;;;;5079091;28;20020;-77
2023/10/30 08:57:19;;;;;;;11.95;1.70;;;12.20;99.90;;;;;;5076107;28;20056;-77
2023/10/30 08:59:45;;;;;;;9.05;1.40;;;12.30;99.90;;;;;;5084735;28;20040;-76
2023/10/30 09:02:10;;;;;;;8.63;1.63;;;12.30;99.90;;;;;;5073225;28;20084;-77
2023/10/30 09:04:36;;;;;;;8.02;1.50;;;12.30;99.90;;;;;;5088885;28;20079;-77
2023/10/30 09:07:03;;;;;;;10.35;1.80;;;12.50;99.90;;;;;;5089008;28;20037;-77
2023/10/30 09:09:28;;;;;;;11.30;1.52;;;12.50;99.90;;;;;;5080198;28;20078;-77
2023/10/30 09:11:54;;;;;;;7.15;1.48;;;12.60;99.90;;;;;;5073438;28;20048;-77
2023/10/30 09:14:20;;;;;;;9.25;1.67;;;12.70;99.90;;;;;;5073497;28;20035;-77
2023/10/30 09:16:45;;;;;;;8.40;1.50;;;12.70;99.90;;;;;;5092600;28;20046;-76
2023/10/30 09:19:11;;;;;;;9.48;2.17;;;12.70;99.90;;;;;;5076818;28;20044;-77
2023/10/30 09:21:37;;;;;;;7.53;1.65;;;12.90;99.90;;;;;;5078321;28;20051;-77
2023/10/30 09:24:02;;;;;;;9.73;1.70;;;12.90;99.90;;;;;;5067862;28;20067;-77
2023/10/30 09:26:29;;;;;;;8.63;1.50;;;12.90;99.90;;;;;;5059169;28;20044;-77
2023/10/30 09:28:55;;;;;;;7.95;1.55;;;13.10;99.90;;;;;;5068653;28;20033;-77
2023/10/30 09:31:20;;;;;;;9.90;1.90;;;13.20;99.90;;;;;;5093101;28;20515;-77
2023/10/30 09:33:47;;;;;;;9.43;1.63;;;13.30;99.90;;;;;;5099247;28;20062;-77
2023/10/30 09:36:13;;;;;;;7.60;1.77;;;13.30;99.90;;;;;;5095661;28;20048;-77
2023/10/30 09:38:38;;;;;;;11.52;1.58;;;13.40;99.90;;;;;;5095344;28;20031;-77
2023/10/30 09:41:05;;;;;;;8.70;1.65;;;13.40;99.90;;;;;;5080806;28;20557;-77
2023/10/30 09:43:33;;;;;;;8.45;1.60;;;13.50;99.90;;;;;;5072757;28;20399;-76
2023/10/30 09:46:00;;;;;;;9.38;1.35;;;13.50;99.90;;;;;;5073674;28;20044;-77
2023/10/30 09:48:28;;;;;;;7.78;1.60;;;13.60;99.90;;;;;;5049543;28;20598;-77
2023/10/30 09:50:54;;;;;;;11.43;1.50;;;13.60;99.90;;;;;;5105605;28;20119;-76
2023/10/30 09:53:20;;;;;;;8.15;1.75;;;13.70;99.90;;;;;;5092304;28;20681;-77
2023/10/30 09:55:48;;;;;;;8.77;1.70;;;13.70;99.90;;;;;;5091574;28;20047;-76
2023/10/30 09:58:15;;;;;;;11.10;1.75;;;13.80;99.90;;;;;;5083868;28;20067;-77
2023/10/30 10:00:44;;;;;;;11.02;1.88;;;13.80;99.90;;;;;;5076530;28;20492;-77
2023/10/30 10:03:10;;;;;;;6.78;1.50;;;13.80;99.90;;;;;;5074213;28;20040;-77
2023/10/30 10:05:35;;;;;;;6.72;1.40;;;13.80;99.90;;;;;;5062294;28;20047;-76
2023/10/30 10:08:01;;;;;;;12.00;1.65;;;13.80;99.90;;;;;;5085247;28;20420;-76
2023/10/30 10:10:27;;;;;;;10.32;1.70;;;13.80;99.90;;;;;;5080011;28;20040;-77
2023/10/30 10:12:55;;;;;;;9.13;1.80;;;13.80;99.90;;;;;;5075659;28;20032;-77
2023/10/30 10:15:21;;;;;;;13.05;2.08;;;13.80;99.90;;;;;;5091812;28;20036;-77
2023/10/30 10:17:48;;;;;;;10.25;1.88;;;13.80;99.90;;;;;;5075190;28;20159;-77
2023/10/30 10:20:14;;;;;;;10.45;1.90;;;13.80;99.90;;;;;;5080407;28;20102;-77
2023/10/30 10:22:40;;;;;;;9.40;1.52;;;13.70;99.90;;;;;;5090038;28;20119;-77
2023/10/30 10:25:11;;;;;;;12.02;2.15;;;13.70;99.90;;;;;;5050151;28;20119;-76
2023/10/30 10:27:40;;;;;;;10.43;1.80;;;13.60;99.90;;;;;;5073850;28;20039;-77
2023/10/30 10:30:08;;;;;;;11.93;2.38;;;13.60;99.90;;;;;;5081216;28;20106;-77
2023/10/30 10:32:34;;;;;;;9.65;1.75;;;13.60;99.90;;;;;;5072977;28;20036;-77
2023/10/30 10:35:02;;;;;;;11.02;1.90;;;13.50;99.90;;;;;;5075238;28;20377;-76
2023/10/30 10:37:28;;;;;;;7.90;1.70;;;13.60;99.90;;;;;;5093754;28;20039;-76
2023/10/30 10:39:55;;;;;;;9.00;1.55;;;13.60;99.90;;;;;;5058329;28;20044;-76
2023/10/30 10:42:22;;;;;;;13.65;2.55;;;13.60;99.90;;;;;;5051522;28;20044;-76
2023/10/30 10:44:51;;;;;;;12.50;1.73;;;13.60;99.90;;;;;;5083529;28;20115;-77
2023/10/30 10:47:18;;;;;;;7.47;1.52;;;13.50;99.90;;;;;;5064769;28;20051;-76
2023/10/30 10:49:44;;;;;;;9.82;1.80;;;13.60;99.90;;;;;;5058430;28;20043;-77
2023/10/30 10:52:12;;;;;;;11.93;1.98;;;13.60;99.90;;;;;;5060217;28;20392;-77
2023/10/30 10:55:05;;;;;;;9.75;2.22;;;13.60;99.90;;;;;;5076027;28;20515;-77
2023/10/30 10:57:58;;;;;;;10.48;1.77;;;13.50;99.90;;;;;;5080593;28;20056;-77
2023/10/30 11:00:29;;;;;;;8.77;1.55;;;13.70;99.90;;;;;;5086008;28;20530;-77
2023/10/30 11:03:00;;;;;;;12.50;1.95;;;13.70;99.90;;;;;;5074998;28;20044;-77
2023/10/30 11:05:29;;;;;;;9.15;1.58;;;13.70;99.90;;;;;;5052591;28;20048;-77
2023/10/30 11:08:06;;;;;;;11.75;1.98;;;13.70;99.90;;;;;;5089559;28;20452;-77
2023/10/30 11:10:37;;;;;;;12.60;2.22;;;13.60;99.90;;;;;;5075565;28;20105;-77
2023/10/30 11:13:19;;;;;;;8.48;1.85;;;13.60;99.90;;;;;;5065708;28;20031;-77
2023/10/30 11:15:54;;;;;;;9.70;1.83;;;13.70;99.90;;;;;;5066085;28;20106;-77
2023/10/30 11:18:23;;;;;;;6.53;1.30;;;13.70;99.90;;;;;;5055681;28;20035;-77
2023/10/30 11:21:16;;;;;;;7.50;1.52;;;13.70;99.90;;;;;;5104931;28;20071;-77
2023/10/30 11:23:44;;;;;;;11.80;2.00;;;13.70;99.90;;;;;;5074010;28;20052;-77
2023/10/30 11:26:29;;;;;;;16.42;1.98;;;13.80;99.90;;;;;;5086877;28;20496;-77
2023/10/30 11:28:55;;;;;;;9.23;1.83;;;13.70;99.90;;;;;;5073073;28;20493;-77
2023/10/30 11:31:21;;;;;;;8.93;1.83;;;13.60;99.90;;;;;;5049928;28;20126;-77
2023/10/30 11:33:48;;;;;;;9.05;1.85;;;13.60;99.90;;;;;;5074544;28;20546;-77
2023/10/30 11:36:18;;;;;;;7.18;1.75;;;13.60;99.90;;;;;;5106838;28;20052;-77
2023/10/30 11:38:59;;;;;;;10.43;1.85;;;13.70;99.90;;;;;;5075895;28;20135;-77
2023/10/30 11:41:27;;;;;;;13.02;2.35;;;13.70;99.90;;;;;;5088076;28;20032;-77
2023/10/30 11:44:13;;;;;;;8.70;1.75;;;13.70;99.90;;;;;;5091187;28;20082;-77
2023/10/30 11:46:46;;;;;;;9.38;1.77;;;13.80;99.90;;;;;;5093975;28;20510;-77
2023/10/30 11:49:16;;;;;;;10.73;1.70;;;13.70;99.90;;;;;;5074014;28;20040;-77
2023/10/30 11:51:44;;;;;;;7.72;1.45;;;13.70;99.90;;;;;;5075139;28;20040;-77
2023/10/30 11:54:10;;;;;;;9.90;1.75;;;13.80;99.90;;;;;;5074262;28;20076;-76
2023/10/30 11:56:36;;;;;;;13.15;2.10;;;13.90;99.90;;;;;;5052549;28;20078;-77
2023/10/30 11:59:03;;;;;;;11.27;1.80;;;13.80;99.90;;;;;;5087202;28;20040;-76
2023/10/30 12:01:31;;;;;;;10.65;2.38;;;13.80;99.90;;;;;;5075538;28;20468;-76
2023/10/30 12:03:56;;;;;;;9.05;1.48;;;13.80;99.90;;;;;;5088656;28;20036;-77
2023/10/30 12:06:25;;;;;;;9.77;1.88;;;13.80;99.90;;;;;;5069904;28;20047;-76
2023/10/30 12:08:51;;;;;;;9.30;1.77;;;13.70;99.90;;;;;;5075148;28;20044;-76
2023/10/30 12:11:17;;;;;;;10.82;1.92;;;13.70;99.90;;;;;;5093272;28;20063;-76
2023/10/30 12:13:45;;;;;;;8.55;1.60;;;13.60;99.90;;;;;;5090015;28;20028;-77
2023/10/30 12:16:11;;;;;;;10.32;2.15;;;13.70;99.90;;;;;;5080343;28;20048;-76
2023/10/30 12:18:37;;;;;;;10.85;1.80;;;13.70;99.90;;;;;;5092827;28;20046;-77
2023/10/30 12:21:03;;;;;;;9.50;2.00;;;13.80;99.90;;;;;;5092303;28;20126;-76
2023/10/30 12:23:30;;;;;;;8.65;1.50;;;13.70;99.90;;;;;;5089788;28;20044;-77
2023/10/30 12:26:05;;;;;;;10.23;2.58;;;13.70;99.90;;;;;;5083192;28;20488;-77
2023/10/30 12:28:38;;;;;;;11.63;2.35;;;13.60;99.90;;;;;;5075190;28;20506;-77
2023/10/30 12:31:20;;;;;;;9.05;1.90;;;13.70;99.90;;;;;;5075791;28;20177;-76
2023/10/30 12:33:46;;;;;;;12.70;2.70;;;13.70;99.90;;;;;;5073551;28;20170;-77
2023/10/30 12:36:12;;;;;;;10.60;2.08;;;13.60;99.90;;;;;;5082863;28;20553;-77
2023/10/30 12:38:38;;;;;;;11.15;1.98;;;13.60;99.90;;;;;;5095157;28;20110;-77
2023/10/30 12:41:06;;;;;;;13.20;2.13;;;13.60;99.90;;;;;;5113067;28;20496;-77
2023/10/30 12:43:41;;;;;;;9.48;1.83;;;13.60;99.90;;;;;;5077495;28;20045;-77